createdAt,value
2023-02-24T00:00:51.711Z,69.00
2023-02-24T00:04:02.058Z,70.30
2023-02-24T00:07:26.856Z,68.30
2023-02-24T00:10:40.279Z,67.70
2023-02-24T00:13:47.475Z,69.60
2023-02-24T00:16:53.409Z,68.90
2023-02-24T00:20:02.985Z,68.90
2023-02-24T00:23:09.956Z,69.00
2023-02-24T00:26:19.498Z,69.00
2023-02-24T00:29:26.394Z,69.00
2023-02-24T00:32:30.715Z,69.10
2023-02-24T00:35:35.781Z,69.10
2023-02-24T00:38:49.088Z,69.30
2023-02-24T00:41:58.429Z,69.40
2023-02-24T00:45:10.109Z,69.50
2023-02-24T00:48:16.075Z,69.60
2023-02-24T00:51:25.619Z,69.70
2023-02-24T00:54:29.738Z,69.50
2023-02-24T00:57:35.444Z,70.00
2023-02-24T01:00:44.233Z,69.10
2023-02-24T01:03:52.239Z,70.00
2023-02-24T01:07:02.782Z,70.20
2023-02-24T01:10:09.262Z,70.30
2023-02-24T01:13:14.098Z,70.40
2023-02-24T01:16:22.011Z,71.40
2023-02-24T01:19:32.594Z,70.40
2023-02-24T01:22:41.502Z,71.20
2023-02-24T01:25:48.575Z,70.30
2023-02-24T01:28:56.673Z,70.10
2023-02-24T01:32:04.434Z,70.30
2023-02-24T01:35:09.116Z,70.40
2023-02-24T01:38:13.417Z,70.50
2023-02-24T01:41:23.084Z,70.50
2023-02-24T01:45:16.331Z,71.10
2023-02-24T01:48:21.963Z,70.80
2023-02-24T01:51:38.538Z,70.80
2023-02-24T01:54:51.317Z,70.80
2023-02-24T01:57:57.590Z,70.50
2023-02-24T02:01:09.233Z,70.20
2023-02-24T02:04:25.070Z,71.20
2023-02-24T02:07:32.072Z,70.60
2023-02-24T02:10:39.795Z,71.20
2023-02-24T02:13:50.676Z,70.50
2023-02-24T02:17:27.596Z,70.90
2023-02-24T02:21:36.762Z,70.60
2023-02-24T02:24:56.875Z,70.10
2023-02-24T02:28:50.544Z,70.10
2023-02-24T02:33:09.994Z,69.80
2023-02-24T02:36:43.095Z,69.90
2023-02-24T02:40:18.795Z,69.90
2023-02-24T02:43:36.827Z,69.70
2023-02-24T02:46:58.202Z,69.90
2023-02-24T02:50:18.821Z,69.50
2023-02-24T02:53:37.699Z,69.70
2023-02-24T02:56:56.841Z,70.40
2023-02-24T03:00:14.291Z,69.80
2023-02-24T03:03:26.679Z,69.60
2023-02-24T03:06:42.364Z,69.70
2023-02-24T03:09:56.030Z,70.10
2023-02-24T03:13:06.469Z,68.90
2023-02-24T03:16:17.600Z,69.50
2023-02-24T03:19:37.561Z,69.60
2023-02-24T03:22:52.321Z,69.50
2023-02-24T03:26:17.704Z,69.40
2023-02-24T03:29:40.093Z,68.40
2023-02-24T03:33:03.163Z,69.20
2023-02-24T03:36:09.309Z,69.20
2023-02-24T03:39:20.198Z,69.20
2023-02-24T03:42:36.973Z,68.50
2023-02-24T03:45:48.620Z,69.10
2023-02-24T03:49:04.364Z,69.20
2023-02-24T03:52:32.984Z,69.10
2023-02-24T03:56:00.041Z,69.10
2023-02-24T03:59:25.146Z,69.10
2023-02-24T04:02:31.957Z,70.20
2023-02-24T04:05:47.429Z,68.60
2023-02-24T04:09:01.708Z,69.20
2023-02-24T04:12:18.875Z,69.10
2023-02-24T04:15:30.267Z,70.00
2023-02-24T04:18:34.640Z,68.30
2023-02-24T04:21:43.690Z,68.90
2023-02-24T04:24:52.930Z,68.80
2023-02-24T04:28:00.758Z,68.60
2023-02-24T04:31:18.643Z,68.70
2023-02-24T04:34:24.323Z,68.70
2023-02-24T04:37:33.950Z,68.90
2023-02-24T04:40:41.273Z,69.00
2023-02-24T04:43:45.568Z,70.10
2023-02-24T04:46:51.627Z,69.20
2023-02-24T04:49:55.253Z,68.80
2023-02-24T04:53:02.717Z,69.80
2023-02-24T04:56:09.288Z,69.30
2023-02-24T04:59:14.250Z,69.40
2023-02-24T05:02:21.648Z,69.40
2023-02-24T05:05:28.006Z,69.70
2023-02-24T05:08:33.311Z,69.60
2023-02-24T05:11:36.841Z,69.80
2023-02-24T05:14:40.236Z,69.90
2023-02-24T05:17:45.683Z,70.20
2023-02-24T05:21:10.291Z,70.30
2023-02-24T05:24:17.413Z,70.30
2023-02-24T05:27:22.726Z,70.70
2023-02-24T05:30:27.991Z,70.40
2023-02-24T05:33:33.508Z,70.40
2023-02-24T05:36:43.416Z,70.80
2023-02-24T05:39:53.569Z,71.00
2023-02-24T05:43:04.209Z,71.00
2023-02-24T05:46:08.095Z,71.00
2023-02-24T05:49:23.515Z,70.80
2023-02-24T05:52:28.215Z,71.80
2023-02-24T05:55:36.658Z,71.40
2023-02-24T05:58:40.949Z,71.50
2023-02-24T06:01:45.942Z,71.70
2023-02-24T06:04:54.719Z,72.30
2023-02-24T06:08:13.684Z,71.80
2023-02-24T06:11:21.138Z,71.80
2023-02-24T06:14:26.511Z,71.90
2023-02-24T06:17:30.719Z,71.90
2023-02-24T06:20:38.336Z,72.20
2023-02-24T06:23:43.181Z,72.70
2023-02-24T06:26:50.332Z,71.90
2023-02-24T06:29:56.783Z,71.90
2023-02-24T06:33:00.730Z,72.20
2023-02-24T06:36:07.812Z,72.20
2023-02-24T06:39:14.719Z,72.40
2023-02-24T06:42:19.306Z,72.90
2023-02-24T06:45:26.430Z,73.00
2023-02-24T06:48:31.131Z,72.50
2023-02-24T06:51:39.320Z,73.80
2023-02-24T06:54:42.759Z,72.70
2023-02-24T06:57:51.811Z,72.90
2023-02-24T07:00:59.315Z,72.60
2023-02-24T07:04:19.019Z,72.80
2023-02-24T07:07:24.697Z,73.20
2023-02-24T07:10:29.706Z,73.40
2023-02-24T07:13:34.861Z,73.60
2023-02-24T07:16:41.821Z,73.70
2023-02-24T07:19:46.714Z,75.10
2023-02-24T07:22:53.810Z,73.80
2023-02-24T07:25:59.343Z,73.70
2023-02-24T07:29:06.478Z,73.90
2023-02-24T07:32:12.843Z,73.90
2023-02-24T07:35:20.778Z,72.90
2023-02-24T07:38:26.166Z,74.90
2023-02-24T07:41:31.604Z,73.20
2023-02-24T07:44:36.139Z,74.00
2023-02-24T07:47:41.345Z,73.90
2023-02-24T07:50:44.751Z,73.40
2023-02-24T07:53:54.087Z,74.00
2023-02-24T07:56:59.998Z,74.10
2023-02-24T08:00:17.198Z,74.00
2023-02-24T08:03:22.631Z,74.00
2023-02-24T08:06:33.508Z,74.10
2023-02-24T08:09:56.355Z,74.10
2023-02-24T08:13:03.154Z,74.60
2023-02-24T08:16:12.037Z,73.90
2023-02-24T08:50:40.418Z,74.40
2023-02-24T08:56:56.883Z,75.20
2023-02-24T09:00:00.488Z,74.30
2023-02-24T09:06:12.091Z,74.90
2023-02-24T09:09:21.389Z,74.10
2023-02-24T09:12:30.469Z,74.70
2023-02-24T09:15:42.145Z,74.80
2023-02-24T09:19:10.138Z,74.90
2023-02-24T09:22:31.751Z,76.10
2023-02-24T09:25:45.109Z,73.30
2023-02-24T09:28:55.688Z,74.50
2023-02-24T09:35:09.614Z,74.10
2023-02-24T09:47:58.091Z,74.80
2023-02-24T09:51:06.143Z,74.70
2023-02-24T09:54:17.836Z,75.90
2023-02-24T09:57:37.726Z,75.20
2023-02-24T10:01:06.967Z,75.70
2023-02-24T10:05:07.642Z,76.00
2023-02-24T10:08:25.528Z,75.80
2023-02-24T10:14:51.143Z,77.10
2023-02-24T10:18:06.005Z,75.70
2023-02-24T10:21:30.808Z,75.90
2023-02-24T10:24:47.401Z,75.90
2023-02-24T10:28:06.570Z,75.70
2023-02-24T10:31:25.791Z,75.60
2023-02-24T10:34:33.253Z,75.80
2023-02-24T10:37:36.942Z,76.40
2023-02-24T10:50:27.655Z,75.70
2023-02-24T10:53:37.610Z,75.20
2023-02-24T10:56:55.380Z,75.40
2023-02-24T11:00:23.507Z,75.00
2023-02-24T11:03:36.178Z,76.70
2023-02-24T11:06:55.730Z,74.30
2023-02-24T11:10:13.876Z,74.50
2023-02-24T11:13:36.578Z,74.20
2023-02-24T11:17:05.782Z,74.20
2023-02-24T11:23:35.096Z,72.90
2023-02-24T11:26:43.128Z,72.50
2023-02-24T11:30:18.322Z,73.50
2023-02-24T11:33:41.116Z,72.90
2023-02-24T11:37:00.825Z,73.20
2023-02-24T11:40:16.737Z,72.80
2023-02-24T11:43:30.132Z,73.00
2023-02-24T11:46:42.942Z,72.70
2023-02-24T11:49:52.904Z,72.20
2023-02-24T11:53:01.345Z,69.80
2023-02-24T11:59:23.441Z,70.90
2023-02-24T12:02:43.624Z,74.00
2023-02-24T12:05:54.978Z,70.60
2023-02-24T12:09:09.699Z,70.10
2023-02-24T12:12:26.534Z,70.40
2023-02-24T12:15:36.545Z,70.10
2023-02-24T12:18:48.085Z,69.70
2023-02-24T12:21:59.354Z,70.10
2023-02-24T12:28:28.377Z,69.20
2023-02-24T12:35:08.066Z,68.40
2023-02-24T12:38:41.356Z,68.40
2023-02-24T12:42:05.934Z,69.70
2023-02-24T12:45:21.678Z,69.40
2023-02-24T12:49:12.126Z,68.40
2023-02-24T12:52:30.140Z,68.10
2023-02-24T12:55:48.169Z,68.50
2023-02-24T12:58:59.119Z,69.60
2023-02-24T13:02:18.448Z,69.90
2023-02-24T13:05:32.214Z,69.80
2023-02-24T13:11:59.533Z,69.90
2023-02-24T13:15:08.205Z,70.20
2023-02-24T13:18:26.603Z,71.10
2023-02-24T13:21:30.917Z,71.30
2023-02-24T13:47:04.712Z,71.00
2023-02-24T13:50:25.563Z,73.10
2023-02-24T13:53:56.654Z,71.60
2023-02-24T13:57:37.477Z,72.30
2023-02-24T14:01:07.167Z,71.00
2023-02-24T14:04:26.383Z,69.80
2023-02-24T14:07:38.983Z,69.30
2023-02-24T14:10:52.510Z,68.80
2023-02-24T14:13:58.973Z,67.80
2023-02-24T14:17:14.152Z,70.60
2023-02-24T14:20:22.459Z,70.20
2023-02-24T14:23:30.266Z,70.90
2023-02-24T14:26:44.311Z,71.20
2023-02-24T14:29:52.233Z,71.50
2023-02-24T14:32:57.333Z,71.50
2023-02-24T14:36:04.721Z,71.50
2023-02-24T14:39:42.798Z,71.70
2023-02-24T14:42:50.701Z,71.80
2023-02-24T14:45:57.947Z,71.70
2023-02-24T14:49:01.660Z,71.30
2023-02-24T14:52:12.731Z,71.90
2023-02-24T14:55:22.273Z,72.20
2023-02-24T14:58:30.905Z,72.30
2023-02-24T15:01:40.895Z,72.50
2023-02-24T15:04:47.536Z,72.40
2023-02-24T15:07:52.133Z,72.30
2023-02-24T15:10:58.800Z,72.30
2023-02-24T15:14:06.330Z,72.40
2023-02-24T15:17:18.131Z,72.10
2023-02-24T15:20:33.299Z,72.40
2023-02-24T15:23:41.283Z,72.30
2023-02-24T15:26:54.721Z,73.00
2023-02-24T15:30:06.753Z,72.00
2023-02-24T15:33:23.348Z,71.80
2023-02-24T15:36:32.449Z,71.50
2023-02-24T15:39:37.180Z,71.50
2023-02-24T15:42:51.880Z,71.30
2023-02-24T15:45:58.417Z,71.30
2023-02-24T15:49:05.005Z,72.40
2023-02-24T15:52:12.585Z,71.60
2023-02-24T15:55:19.402Z,71.20
2023-02-24T15:58:26.479Z,71.10
2023-02-24T16:01:32.734Z,71.10
2023-02-24T16:04:37.469Z,71.20
2023-02-24T16:07:43.346Z,71.10
2023-02-24T16:10:50.517Z,71.00
2023-02-24T16:13:59.769Z,70.80
2023-02-24T16:17:09.078Z,70.90
2023-02-24T16:20:19.297Z,71.10
2023-02-24T16:23:25.848Z,71.30
2023-02-24T16:26:29.904Z,71.20
2023-02-24T16:29:36.202Z,71.30
2023-02-24T16:32:39.965Z,70.90
2023-02-24T16:35:45.889Z,71.60
2023-02-24T16:38:51.218Z,71.30
2023-02-24T16:41:55.651Z,71.30
2023-02-24T16:45:02.525Z,71.50
2023-02-24T16:48:17.832Z,71.80
2023-02-24T16:51:24.739Z,71.80
2023-02-24T16:54:30.321Z,71.70
2023-02-24T16:57:33.807Z,72.00
2023-02-24T17:00:42.887Z,72.00
2023-02-24T17:03:52.099Z,72.10
2023-02-24T17:06:55.813Z,72.60
2023-02-24T17:09:59.622Z,71.90
2023-02-24T17:13:03.544Z,71.90
2023-02-24T17:16:09.182Z,71.80
2023-02-24T17:19:13.950Z,71.40
2023-02-24T17:22:17.725Z,71.10
2023-02-24T17:25:27.999Z,71.30
2023-02-24T17:28:31.755Z,71.00
2023-02-24T17:31:37.724Z,71.10
2023-02-24T17:34:41.577Z,72.00
2023-02-24T17:37:47.299Z,70.00
2023-02-24T17:40:52.342Z,70.60
2023-02-24T17:43:57.295Z,70.40
2023-02-24T17:47:12.938Z,70.20
2023-02-24T17:50:17.548Z,70.10
2023-02-24T17:57:14.490Z,70.60
2023-02-24T18:00:23.088Z,70.90
2023-02-24T18:03:34.824Z,71.40
2023-02-24T18:06:48.171Z,71.50
2023-02-24T18:10:27.737Z,71.70
2023-02-24T18:13:41.156Z,71.40
2023-02-24T18:17:02.808Z,71.80
2023-02-24T18:20:37.966Z,72.00
2023-02-24T18:23:56.536Z,72.20
2023-02-24T18:27:18.584Z,72.40
2023-02-24T18:30:44.018Z,72.90
2023-02-24T18:34:08.616Z,72.50
2023-02-24T18:38:01.329Z,72.80
2023-02-24T18:41:24.514Z,72.40
2023-02-24T18:44:58.370Z,72.00
2023-02-24T18:48:21.113Z,72.50
2023-02-24T18:51:52.054Z,72.90
2023-02-24T18:55:23.839Z,72.40
2023-02-24T18:58:56.589Z,72.50
2023-02-24T19:02:27.209Z,72.10
2023-02-24T19:06:13.971Z,72.40
2023-02-24T19:09:56.035Z,73.80
2023-02-24T19:13:31.447Z,73.30
2023-02-24T19:17:22.609Z,72.80
2023-02-24T19:20:53.416Z,73.10
2023-02-24T19:24:30.610Z,73.60
2023-02-24T19:27:55.388Z,74.40
2023-02-24T19:31:33.196Z,74.40
2023-02-24T19:34:56.680Z,72.90
2023-02-24T19:38:33.747Z,71.90
2023-02-24T19:42:15.327Z,71.30
2023-02-24T19:45:37.881Z,71.20
2023-02-24T19:49:10.271Z,71.00
2023-02-24T19:52:43.103Z,70.50
2023-02-24T19:56:10.770Z,70.80
2023-02-24T19:59:36.083Z,70.70
2023-02-24T20:03:12.309Z,70.60
2023-02-24T20:06:49.092Z,70.50
2023-02-24T20:10:22.435Z,70.80
2023-02-24T20:13:48.151Z,71.20
2023-02-24T20:17:17.036Z,71.30
2023-02-24T20:20:27.699Z,71.30
2023-02-24T20:23:52.503Z,71.20
2023-02-24T20:27:00.367Z,71.20
2023-02-24T20:30:04.613Z,71.50
2023-02-24T20:33:08.557Z,71.50
2023-02-24T20:36:15.836Z,72.10
2023-02-24T20:39:24.916Z,71.70
2023-02-24T20:42:28.854Z,71.40
2023-02-24T20:45:36.321Z,71.70
2023-02-24T20:48:40.564Z,71.90
2023-02-24T20:51:45.129Z,72.10
2023-02-24T20:54:50.778Z,72.20
2023-02-24T20:57:54.848Z,72.40
2023-02-24T21:00:58.573Z,72.40
2023-02-24T21:04:03.170Z,72.40
2023-02-24T21:07:08.246Z,72.50
2023-02-24T21:10:14.698Z,72.30
2023-02-24T21:13:20.487Z,72.50
2023-02-24T21:16:24.875Z,72.40
2023-02-24T21:19:31.888Z,72.60
2023-02-24T21:22:36.215Z,72.70
2023-02-24T21:25:41.308Z,72.80
2023-02-24T21:28:56.977Z,73.00
2023-02-24T21:32:01.448Z,73.10
2023-02-24T21:35:06.276Z,73.90
2023-02-24T21:38:11.024Z,73.20
2023-02-24T21:41:19.645Z,73.30
2023-02-24T21:44:23.212Z,74.20
2023-02-24T21:47:26.743Z,73.50
2023-02-24T21:50:30.200Z,73.50
2023-02-24T21:53:35.835Z,72.80
2023-02-24T21:56:41.758Z,72.90
2023-02-24T21:59:45.807Z,73.40
2023-02-24T22:02:54.522Z,73.10
2023-02-24T22:05:59.283Z,73.10
2023-02-24T22:09:05.975Z,73.20
2023-02-24T22:12:12.950Z,73.20
2023-02-24T22:15:17.201Z,73.20
2023-02-24T22:18:22.296Z,74.20
2023-02-24T22:21:29.010Z,73.00
2023-02-24T22:24:33.027Z,74.20
2023-02-24T22:27:39.056Z,74.50
2023-02-24T22:30:42.686Z,74.30
2023-02-24T22:33:47.601Z,73.70
2023-02-24T22:36:51.244Z,73.80
2023-02-24T22:39:55.440Z,74.00
2023-02-24T22:43:01.821Z,74.00
2023-02-24T22:46:08.075Z,74.60
2023-02-24T22:49:12.671Z,73.80
2023-02-24T22:52:17.008Z,73.70
2023-02-24T22:55:21.763Z,73.80
2023-02-24T22:58:27.623Z,74.00
2023-02-24T23:01:34.198Z,74.10
2023-02-24T23:04:39.510Z,74.00
2023-02-24T23:07:45.591Z,74.00
2023-02-24T23:10:49.590Z,74.20
2023-02-24T23:13:55.987Z,74.10
2023-02-24T23:17:00.205Z,74.20
2023-02-24T23:20:06.419Z,74.20
2023-02-24T23:23:12.704Z,74.90
2023-02-24T23:26:19.956Z,74.30
2023-02-24T23:29:27.957Z,74.90
2023-02-24T23:32:33.000Z,74.50
2023-02-24T23:35:37.273Z,74.60
2023-02-24T23:38:41.629Z,74.60
2023-02-24T23:41:45.702Z,75.50
2023-02-24T23:44:50.966Z,74.80
2023-02-24T23:47:55.048Z,74.90
2023-02-24T23:50:59.190Z,73.80
2023-02-24T23:54:03.811Z,75.20
2023-02-24T23:57:08.165Z,75.30
